sensor_id;sensor_type;location;lat;lon;timestamp;pressure;altitude;pressure_sealevel;temperature
13304;BMP280;6720;51.958;4.540;2022-08-01T00:00:28;101519.78;;;19.50
13304;BMP280;6720;51.958;4.540;2022-08-01T00:02:54;101509.44;;;19.44
13304;BMP280;6720;51.958;4.540;2022-08-01T00:05:19;101512.94;;;19.45
13304;BMP280;6720;51.958;4.540;2022-08-01T00:07:45;101507.38;;;19.51
13304;BMP280;6720;51.958;4.540;2022-08-01T00:10:13;101515.16;;;19.55
13304;BMP280;6720;51.958;4.540;2022-08-01T00:12:39;101511.16;;;19.45
13304;BMP280;6720;51.958;4.540;2022-08-01T00:15:05;101520.91;;;19.45
13304;BMP280;6720;51.958;4.540;2022-08-01T00:17:31;101513.00;;;19.43
13304;BMP280;6720;51.958;4.540;2022-08-01T00:19:57;101522.72;;;19.44
13304;BMP280;6720;51.958;4.540;2022-08-01T00:22:22;101524.44;;;19.45
13304;BMP280;6720;51.958;4.540;2022-08-01T00:24:48;101528.03;;;19.44
13304;BMP280;6720;51.958;4.540;2022-08-01T00:27:13;101531.06;;;19.35
13304;BMP280;6720;51.958;4.540;2022-08-01T00:29:38;101510.41;;;19.20
13304;BMP280;6720;51.958;4.540;2022-08-01T00:32:04;101528.94;;;19.22
13304;BMP280;6720;51.958;4.540;2022-08-01T00:34:29;101526.50;;;19.17
13304;BMP280;6720;51.958;4.540;2022-08-01T00:36:55;101530.06;;;19.16
13304;BMP280;6720;51.958;4.540;2022-08-01T00:39:20;101529.22;;;19.16
13304;BMP280;6720;51.958;4.540;2022-08-01T00:41:45;101528.34;;;19.15
13304;BMP280;6720;51.958;4.540;2022-08-01T00:44:11;101519.72;;;19.10
13304;BMP280;6720;51.958;4.540;2022-08-01T00:46:36;101520.25;;;19.18
13304;BMP280;6720;51.958;4.540;2022-08-01T00:49:02;101519.38;;;19.18
13304;BMP280;6720;51.958;4.540;2022-08-01T00:51:28;101521.09;;;19.19
13304;BMP280;6720;51.958;4.540;2022-08-01T00:53:54;101523.03;;;19.15
13304;BMP280;6720;51.958;4.540;2022-08-01T00:56:21;101523.56;;;19.23
13304;BMP280;6720;51.958;4.540;2022-08-01T00:58:47;101512.16;;;19.21
13304;BMP280;6720;51.958;4.540;2022-08-01T01:01:13;101525.56;;;19.18
13304;BMP280;6720;51.958;4.540;2022-08-01T01:03:38;101521.31;;;19.14
13304;BMP280;6720;51.958;4.540;2022-08-01T01:06:25;101516.00;;;19.14
13304;BMP280;6720;51.958;4.540;2022-08-01T01:09:17;101506.63;;;19.06
13304;BMP280;6720;51.958;4.540;2022-08-01T01:12:00;101508.94;;;19.13
13304;BMP280;6720;51.958;4.540;2022-08-01T01:14:41;101510.22;;;19.26
13304;BMP280;6720;51.958;4.540;2022-08-01T01:17:14;101501.31;;;19.27
13304;BMP280;6720;51.958;4.540;2022-08-01T01:19:45;101506.50;;;19.30
13304;BMP280;6720;51.958;4.540;2022-08-01T01:30:19;101505.91;;;19.02
13304;BMP280;6720;51.958;4.540;2022-08-01T01:32:48;101507.84;;;18.97
13304;BMP280;6720;51.958;4.540;2022-08-01T01:35:17;101514.63;;;19.04
13304;BMP280;6720;51.958;4.540;2022-08-01T01:37:46;101518.72;;;18.91
13304;BMP280;6720;51.958;4.540;2022-08-01T01:40:13;101490.16;;;18.76
13304;BMP280;6720;51.958;4.540;2022-08-01T01:42:41;101501.31;;;18.84
13304;BMP280;6720;51.958;4.540;2022-08-01T01:45:08;101518.09;;;18.85
13304;BMP280;6720;51.958;4.540;2022-08-01T01:47:34;101513.47;;;18.90
13304;BMP280;6720;51.958;4.540;2022-08-01T01:50:02;101518.59;;;18.94
13304;BMP280;6720;51.958;4.540;2022-08-01T01:52:28;101511.69;;;18.90
13304;BMP280;6720;51.958;4.540;2022-08-01T01:54:55;101518.34;;;19.00
13304;BMP280;6720;51.958;4.540;2022-08-01T01:57:22;101513.16;;;18.97
13304;BMP280;6720;51.958;4.540;2022-08-01T01:59:49;101525.25;;;19.04
13304;BMP280;6720;51.958;4.540;2022-08-01T02:02:16;101524.47;;;19.02
13304;BMP280;6720;51.958;4.540;2022-08-01T02:04:45;101525.38;;;19.01
13304;BMP280;6720;51.958;4.540;2022-08-01T02:07:14;101518.59;;;18.94
13304;BMP280;6720;51.958;4.540;2022-08-01T02:09:42;101519.34;;;18.98
13304;BMP280;6720;51.958;4.540;2022-08-01T02:12:10;101525.66;;;18.95
13304;BMP280;6720;51.958;4.540;2022-08-01T02:14:37;101529.19;;;18.94
13304;BMP280;6720;51.958;4.540;2022-08-01T02:17:05;101518.59;;;18.94
13304;BMP280;6720;51.958;4.540;2022-08-01T02:19:32;101513.03;;;19.00
13304;BMP280;6720;51.958;4.540;2022-08-01T02:22:04;101529.34;;;18.91
13304;BMP280;6720;51.958;4.540;2022-08-01T02:27:09;101531.94;;;18.93
13304;BMP280;6720;51.958;4.540;2022-08-01T02:29:41;101518.72;;;18.91
13304;BMP280;6720;51.958;4.540;2022-08-01T02:32:14;101523.09;;;18.92
13304;BMP280;6720;51.958;4.540;2022-08-01T02:34:43;101523.84;;;18.96
13304;BMP280;6720;51.958;4.540;2022-08-01T02:37:11;101510.72;;;18.93
13304;BMP280;6720;51.958;4.540;2022-08-01T02:39:38;101531.69;;;18.99
13304;BMP280;6720;51.958;4.540;2022-08-01T02:42:06;101533.34;;;19.01
13304;BMP280;6720;51.958;4.540;2022-08-01T02:44:36;101505.31;;;18.94
13304;BMP280;6720;51.958;4.540;2022-08-01T02:47:02;101499.47;;;18.86
13304;BMP280;6720;51.958;4.540;2022-08-01T02:49:33;101510.50;;;18.97
13304;BMP280;6720;51.958;4.540;2022-08-01T02:52:05;101517.63;;;18.97
13304;BMP280;6720;51.958;4.540;2022-08-01T02:54:32;101515.81;;;18.97
13304;BMP280;6720;51.958;4.540;2022-08-01T02:57:00;101521.06;;;18.99
13304;BMP280;6720;51.958;4.540;2022-08-01T02:59:27;101525.50;;;18.98
13304;BMP280;6720;51.958;4.540;2022-08-01T03:01:56;101513.38;;;18.93
13304;BMP280;6720;51.958;4.540;2022-08-01T03:04:23;101530.56;;;19.04
13304;BMP280;6720;51.958;4.540;2022-08-01T03:06:50;101524.72;;;18.96
13304;BMP280;6720;51.958;4.540;2022-08-01T03:09:18;101526.63;;;18.93
13304;BMP280;6720;51.958;4.540;2022-08-01T03:11:45;101527.34;;;18.96
13304;BMP280;6720;51.958;4.540;2022-08-01T03:14:12;101530.00;;;18.96
13304;BMP280;6720;51.958;4.540;2022-08-01T03:16:39;101531.34;;;18.85
13304;BMP280;6720;51.958;4.540;2022-08-01T03:19:08;101534.78;;;18.88
13304;BMP280;6720;51.958;4.540;2022-08-01T03:21:35;101544.88;;;18.79
13304;BMP280;6720;51.958;4.540;2022-08-01T03:24:03;101540.56;;;18.76
13304;BMP280;6720;51.958;4.540;2022-08-01T03:26:32;101528.56;;;18.66
13304;BMP280;6720;51.958;4.540;2022-08-01T03:29:02;101533.66;;;18.72
13304;BMP280;6720;51.958;4.540;2022-08-01T03:31:36;101529.03;;;18.77
13304;BMP280;6720;51.958;4.540;2022-08-01T03:34:02;101527.34;;;18.75
13304;BMP280;6720;51.958;4.540;2022-08-01T03:36:28;101535.00;;;18.82
13304;BMP280;6720;51.958;4.540;2022-08-01T03:38:58;101530.13;;;18.93
13304;BMP280;6720;51.958;4.540;2022-08-01T03:41:27;101534.88;;;18.85
13304;BMP280;6720;51.958;4.540;2022-08-01T03:44:01;101534.84;;;18.87
13304;BMP280;6720;51.958;4.540;2022-08-01T03:46:36;101543.34;;;18.73
13304;BMP280;6720;51.958;4.540;2022-08-01T03:49:08;101543.22;;;18.76
13304;BMP280;6720;51.958;4.540;2022-08-01T03:51:36;101528.69;;;18.85
13304;BMP280;6720;51.958;4.540;2022-08-01T03:54:03;101532.00;;;18.91
13304;BMP280;6720;51.958;4.540;2022-08-01T03:56:30;101535.94;;;18.81
13304;BMP280;6720;51.958;4.540;2022-08-01T03:58:59;101538.34;;;18.87
13304;BMP280;6720;51.958;4.540;2022-08-01T04:01:25;101534.88;;;18.85
13304;BMP280;6720;51.958;4.540;2022-08-01T04:03:51;101537.88;;;18.78
13304;BMP280;6720;51.958;4.540;2022-08-01T04:06:17;101525.09;;;18.64
13304;BMP280;6720;51.958;4.540;2022-08-01T04:08:43;101533.41;;;18.78
13304;BMP280;6720;51.958;4.540;2022-08-01T04:11:21;101524.38;;;18.82
13304;BMP280;6720;51.958;4.540;2022-08-01T04:13:46;101532.41;;;18.81
13304;BMP280;6720;51.958;4.540;2022-08-01T04:16:12;101531.56;;;18.80
13304;BMP280;6720;51.958;4.540;2022-08-01T04:18:37;101524.50;;;18.79
13304;BMP280;6720;51.958;4.540;2022-08-01T04:21:02;101541.91;;;18.86
13304;BMP280;6720;51.958;4.540;2022-08-01T04:23:30;101540.00;;;18.68
13304;BMP280;6720;51.958;4.540;2022-08-01T04:25:59;101524.38;;;18.61
13304;BMP280;6720;51.958;4.540;2022-08-01T04:28:25;101536.84;;;18.59
13304;BMP280;6720;51.958;4.540;2022-08-01T04:30:54;101541.94;;;18.63
13304;BMP280;6720;51.958;4.540;2022-08-01T04:33:21;101548.31;;;18.59
13304;BMP280;6720;51.958;4.540;2022-08-01T04:35:47;101550.03;;;18.60
13304;BMP280;6720;51.958;4.540;2022-08-01T04:38:18;101553.59;;;18.59
13304;BMP280;6720;51.958;4.540;2022-08-01T04:40:44;101552.28;;;18.71
13304;BMP280;6720;51.958;4.540;2022-08-01T04:43:13;101552.63;;;18.62
13304;BMP280;6720;51.958;4.540;2022-08-01T04:45:40;101553.88;;;18.75
13304;BMP280;6720;51.958;4.540;2022-08-01T04:48:06;101548.31;;;18.81
13304;BMP280;6720;51.958;4.540;2022-08-01T04:50:32;101556.22;;;18.82
13304;BMP280;6720;51.958;4.540;2022-08-01T04:52:57;101554.41;;;18.84
13304;BMP280;6720;51.958;4.540;2022-08-01T04:55:23;101558.94;;;18.81
13304;BMP280;6720;51.958;4.540;2022-08-01T04:57:48;101563.28;;;18.83
13304;BMP280;6720;51.958;4.540;2022-08-01T05:00:15;101560.44;;;18.88
13304;BMP280;6720;51.958;4.540;2022-08-01T05:02:41;101562.91;;;18.92
13304;BMP280;6720;51.958;4.540;2022-08-01T05:05:07;101561.03;;;18.94
13304;BMP280;6720;51.958;4.540;2022-08-01T05:07:33;101564.50;;;18.96
13304;BMP280;6720;51.958;4.540;2022-08-01T05:10:02;101560.38;;;18.89
13304;BMP280;6720;51.958;4.540;2022-08-01T05:12:27;101557.34;;;18.98
13304;BMP280;6720;51.958;4.540;2022-08-01T05:14:53;101547.44;;;19.03
13304;BMP280;6720;51.958;4.540;2022-08-01T05:17:18;101551.28;;;19.16
13304;BMP280;6720;51.958;4.540;2022-08-01T05:19:44;101547.31;;;19.06
13304;BMP280;6720;51.958;4.540;2022-08-01T05:22:09;101544.50;;;19.09
13304;BMP280;6720;51.958;4.540;2022-08-01T05:24:37;101555.63;;;18.97
13304;BMP280;6720;51.958;4.540;2022-08-01T05:27:03;101549.81;;;19.09
13304;BMP280;6720;51.958;4.540;2022-08-01T05:29:29;101555.69;;;19.17
13304;BMP280;6720;51.958;4.540;2022-08-01T05:31:55;101544.22;;;19.17
13304;BMP280;6720;51.958;4.540;2022-08-01T05:34:20;101556.00;;;19.10
13304;BMP280;6720;51.958;4.540;2022-08-01T05:36:46;101559.47;;;19.12
13304;BMP280;6720;51.958;4.540;2022-08-01T05:39:14;101558.34;;;19.17
13304;BMP280;6720;51.958;4.540;2022-08-01T05:41:41;101558.94;;;19.25
13304;BMP280;6720;51.958;4.540;2022-08-01T05:44:07;101562.91;;;19.35
13304;BMP280;6720;51.958;4.540;2022-08-01T05:46:33;101561.81;;;19.41
13304;BMP280;6720;51.958;4.540;2022-08-01T05:49:02;101572.97;;;19.49
13304;BMP280;6720;51.958;4.540;2022-08-01T05:51:28;101572.78;;;19.53
13304;BMP280;6720;51.958;4.540;2022-08-01T05:53:54;101570.78;;;19.58
13304;BMP280;6720;51.958;4.540;2022-08-01T05:56:20;101561.28;;;19.53
13304;BMP280;6720;51.958;4.540;2022-08-01T05:58:46;101572.91;;;19.50
13304;BMP280;6720;51.958;4.540;2022-08-01T06:01:11;101568.00;;;19.61
13304;BMP280;6720;51.958;4.540;2022-08-01T06:03:36;101569.47;;;19.68
13304;BMP280;6720;51.958;4.540;2022-08-01T06:06:03;101574.66;;;19.71
13304;BMP280;6720;51.958;4.540;2022-08-01T06:08:28;101583.41;;;19.73
13304;BMP280;6720;51.958;4.540;2022-08-01T06:10:54;101574.72;;;19.70
13304;BMP280;6720;51.958;4.540;2022-08-01T06:13:19;101585.94;;;19.76
13304;BMP280;6720;51.958;4.540;2022-08-01T06:15:45;101586.00;;;19.75
13304;BMP280;6720;51.958;4.540;2022-08-01T06:18:11;101584.25;;;19.75
13304;BMP280;6720;51.958;4.540;2022-08-01T06:20:36;101590.72;;;19.68
13304;BMP280;6720;51.958;4.540;2022-08-01T06:23:02;101594.88;;;19.75
13304;BMP280;6720;51.958;4.540;2022-08-01T06:25:27;101590.19;;;19.60
13304;BMP280;6720;51.958;4.540;2022-08-01T06:27:53;101590.69;;;19.70
13304;BMP280;6720;51.958;4.540;2022-08-01T06:30:18;101589.94;;;19.66
13304;BMP280;6720;51.958;4.540;2022-08-01T06:32:43;101602.41;;;19.64
13304;BMP280;6720;51.958;4.540;2022-08-01T06:35:09;101601.53;;;19.64
13304;BMP280;6720;51.958;4.540;2022-08-01T06:37:34;101606.25;;;19.57
13304;BMP280;6720;51.958;4.540;2022-08-01T06:40:06;101601.06;;;19.54
13304;BMP280;6720;51.958;4.540;2022-08-01T06:42:32;101587.69;;;19.36
13304;BMP280;6720;51.958;4.540;2022-08-01T06:45:04;101604.66;;;19.53
13304;BMP280;6720;51.958;4.540;2022-08-01T06:47:30;101611.56;;;19.57
13304;BMP280;6720;51.958;4.540;2022-08-01T06:49:55;101610.91;;;19.52
13304;BMP280;6720;51.958;4.540;2022-08-01T06:52:23;101614.28;;;19.56
13304;BMP280;6720;51.958;4.540;2022-08-01T06:54:48;101608.84;;;19.59
13304;BMP280;6720;51.958;4.540;2022-08-01T06:57:14;101604.16;;;19.65
13304;BMP280;6720;51.958;4.540;2022-08-01T06:59:39;101616.44;;;19.68
13304;BMP280;6720;51.958;4.540;2022-08-01T07:02:04;101614.66;;;19.68
13304;BMP280;6720;51.958;4.540;2022-08-01T07:04:31;101599.09;;;19.59
13304;BMP280;6720;51.958;4.540;2022-08-01T07:06:57;101614.88;;;19.62
13304;BMP280;6720;51.958;4.540;2022-08-01T07:09:22;101629.00;;;19.64
13304;BMP280;6720;51.958;4.540;2022-08-01T07:11:48;101635.47;;;19.57
13304;BMP280;6720;51.958;4.540;2022-08-01T07:14:13;101631.50;;;19.47
13304;BMP280;6720;51.958;4.540;2022-08-01T07:16:38;101632.47;;;19.45
13304;BMP280;6720;51.958;4.540;2022-08-01T07:19:04;101644.47;;;19.33
13304;BMP280;6720;51.958;4.540;2022-08-01T07:21:29;101639.66;;;19.43
13304;BMP280;6720;51.958;4.540;2022-08-01T07:23:54;101644.06;;;19.42
13304;BMP280;6720;51.958;4.540;2022-08-01T07:26:20;101640.97;;;19.31
13304;BMP280;6720;51.958;4.540;2022-08-01T07:28:45;101632.97;;;19.33
13304;BMP280;6720;51.958;4.540;2022-08-01T07:31:10;101650.63;;;19.34
13304;BMP280;6720;51.958;4.540;2022-08-01T07:33:36;101639.38;;;19.27
13304;BMP280;6720;51.958;4.540;2022-08-01T07:36:02;101662.00;;;19.37
13304;BMP280;6720;51.958;4.540;2022-08-01T07:38:28;101659.00;;;19.45
13304;BMP280;6720;51.958;4.540;2022-08-01T07:40:54;101653.09;;;19.38
13304;BMP280;6720;51.958;4.540;2022-08-01T07:43:20;101665.22;;;19.45
13304;BMP280;6720;51.958;4.540;2022-08-01T07:45:45;101670.41;;;19.48
13304;BMP280;6720;51.958;4.540;2022-08-01T07:48:10;101672.13;;;19.49
13304;BMP280;6720;51.958;4.540;2022-08-01T07:50:36;101672.78;;;19.54
13304;BMP280;6720;51.958;4.540;2022-08-01T07:53:01;101675.28;;;19.59
13304;BMP280;6720;51.958;4.540;2022-08-01T07:55:27;101678.81;;;19.59
13304;BMP280;6720;51.958;4.540;2022-08-01T07:57:53;101679.19;;;19.72
13304;BMP280;6720;51.958;4.540;2022-08-01T08:00:18;101681.25;;;19.64
13304;BMP280;6720;51.958;4.540;2022-08-01T08:02:44;101683.09;;;19.83
13304;BMP280;6720;51.958;4.540;2022-08-01T08:05:10;101667.63;;;19.93
13304;BMP280;6720;51.958;4.540;2022-08-01T08:07:36;101667.59;;;20.14
13304;BMP280;6720;51.958;4.540;2022-08-01T08:10:03;101671.09;;;20.16
13304;BMP280;6720;51.958;4.540;2022-08-01T08:12:28;101676.94;;;20.24
13304;BMP280;6720;51.958;4.540;2022-08-01T08:14:54;101673.72;;;20.36
13304;BMP280;6720;51.958;4.540;2022-08-01T08:17:19;101672.25;;;20.29
13304;BMP280;6720;51.958;4.540;2022-08-01T08:19:44;101685.84;;;20.23
13304;BMP280;6720;51.958;4.540;2022-08-01T08:22:11;101690.28;;;20.63
13304;BMP280;6720;51.958;4.540;2022-08-01T08:24:37;101693.66;;;20.66
13304;BMP280;6720;51.958;4.540;2022-08-01T08:27:03;101695.63;;;20.81
13304;BMP280;6720;51.958;4.540;2022-08-01T08:29:30;101701.06;;;20.78
13304;BMP280;6720;51.958;4.540;2022-08-01T08:31:58;101689.34;;;20.82
13304;BMP280;6720;51.958;4.540;2022-08-01T08:34:24;101697.50;;;20.99
13304;BMP280;6720;51.958;4.540;2022-08-01T08:36:50;101696.47;;;21.02
13304;BMP280;6720;51.958;4.540;2022-08-01T08:39:16;101698.63;;;21.12
13304;BMP280;6720;51.958;4.540;2022-08-01T08:41:42;101698.16;;;21.23
13304;BMP280;6720;51.958;4.540;2022-08-01T08:44:09;101695.91;;;21.32
13304;BMP280;6720;51.958;4.540;2022-08-01T08:46:40;101702.09;;;21.14
13304;BMP280;6720;51.958;4.540;2022-08-01T08:49:06;101706.56;;;21.32
13304;BMP280;6720;51.958;4.540;2022-08-01T08:51:34;101715.47;;;21.31
13304;BMP280;6720;51.958;4.540;2022-08-01T08:54:00;101718.06;;;21.52
13304;BMP280;6720;51.958;4.540;2022-08-01T08:56:27;101715.56;;;21.48
13304;BMP280;6720;51.958;4.540;2022-08-01T08:58:55;101712.75;;;21.52
13304;BMP280;6720;51.958;4.540;2022-08-01T09:01:21;101711.50;;;21.59
13304;BMP280;6720;51.958;4.540;2022-08-01T09:03:47;101716.31;;;21.69
13304;BMP280;6720;51.958;4.540;2022-08-01T09:06:13;101719.72;;;21.73
13304;BMP280;6720;51.958;4.540;2022-08-01T09:08:39;101726.81;;;21.74
13304;BMP280;6720;51.958;4.540;2022-08-01T09:11:06;101727.97;;;21.85
13304;BMP280;6720;51.958;4.540;2022-08-01T09:13:31;101722.25;;;21.76
13304;BMP280;6720;51.958;4.540;2022-08-01T09:15:57;101724.53;;;21.83
13304;BMP280;6720;51.958;4.540;2022-08-01T09:18:37;101726.19;;;22.03
13304;BMP280;6720;51.958;4.540;2022-08-01T09:26:15;101727.75;;;21.90
13304;BMP280;6720;51.958;4.540;2022-08-01T09:28:41;101732.97;;;22.10
13304;BMP280;6720;51.958;4.540;2022-08-01T09:31:15;101735.16;;;22.19
13304;BMP280;6720;51.958;4.540;2022-08-01T09:36:18;101735.31;;;22.67
13304;BMP280;6720;51.958;4.540;2022-08-01T09:38:45;101731.97;;;22.96
13304;BMP280;6720;51.958;4.540;2022-08-01T09:41:10;101733.00;;;22.61
13304;BMP280;6720;51.958;4.540;2022-08-01T09:43:36;101751.88;;;22.90
13304;BMP280;6720;51.958;4.540;2022-08-01T09:46:11;101745.66;;;22.90
13304;BMP280;6720;51.958;4.540;2022-08-01T09:48:37;101748.81;;;23.13
13304;BMP280;6720;51.958;4.540;2022-08-01T09:51:05;101755.03;;;23.46
13304;BMP280;6720;51.958;4.540;2022-08-01T09:53:46;101765.13;;;23.41
13304;BMP280;6720;51.958;4.540;2022-08-01T09:56:13;101757.16;;;24.17
13304;BMP280;6720;51.958;4.540;2022-08-01T10:01:16;101758.00;;;22.92
13304;BMP280;6720;51.958;4.540;2022-08-01T10:03:41;101758.47;;;23.64
13304;BMP280;6720;51.958;4.540;2022-08-01T10:06:22;101766.06;;;23.87
13304;BMP280;6720;51.958;4.540;2022-08-01T10:08:48;101752.38;;;24.22
13304;BMP280;6720;51.958;4.540;2022-08-01T10:11:13;101752.94;;;23.82
13304;BMP280;6720;51.958;4.540;2022-08-01T10:13:39;101753.75;;;24.29
13304;BMP280;6720;51.958;4.540;2022-08-01T10:16:05;101749.44;;;24.27
13304;BMP280;6720;51.958;4.540;2022-08-01T10:18:33;101747.38;;;24.76
13304;BMP280;6720;51.958;4.540;2022-08-01T10:21:00;101745.47;;;24.78
13304;BMP280;6720;51.958;4.540;2022-08-01T10:23:27;101753.56;;;24.62
13304;BMP280;6720;51.958;4.540;2022-08-01T10:25:55;101736.28;;;24.96
13304;BMP280;6720;51.958;4.540;2022-08-01T10:28:22;101755.03;;;24.52
13304;BMP280;6720;51.958;4.540;2022-08-01T10:30:48;101752.75;;;24.46
13304;BMP280;6720;51.958;4.540;2022-08-01T10:33:15;101758.97;;;23.86
13304;BMP280;6720;51.958;4.540;2022-08-01T10:35:41;101748.38;;;24.89
13304;BMP280;6720;51.958;4.540;2022-08-01T10:38:07;101749.47;;;24.11
13304;BMP280;6720;51.958;4.540;2022-08-01T10:40:33;101758.47;;;24.40
13304;BMP280;6720;51.958;4.540;2022-08-01T10:43:01;101755.72;;;24.85
13304;BMP280;6720;51.958;4.540;2022-08-01T10:45:27;101765.50;;;24.27
13304;BMP280;6720;51.958;4.540;2022-08-01T10:48:00;101765.28;;;24.00
13304;BMP280;6720;51.958;4.540;2022-08-01T10:50:51;101767.53;;;24.37
13304;BMP280;6720;51.958;4.540;2022-08-01T10:53:22;101760.88;;;24.88
13304;BMP280;6720;51.958;4.540;2022-08-01T10:58:13;101765.50;;;25.00
13304;BMP280;6720;51.958;4.540;2022-08-01T11:00:38;101768.34;;;25.53
13304;BMP280;6720;51.958;4.540;2022-08-01T11:03:04;101774.53;;;26.22
13304;BMP280;6720;51.958;4.540;2022-08-01T11:05:34;101773.88;;;26.31
13304;BMP280;6720;51.958;4.540;2022-08-01T11:08:07;101774.22;;;26.00
13304;BMP280;6720;51.958;4.540;2022-08-01T11:10:39;101779.34;;;25.63
13304;BMP280;6720;51.958;4.540;2022-08-01T11:13:05;101782.19;;;25.33
13304;BMP280;6720;51.958;4.540;2022-08-01T11:15:34;101789.00;;;25.79
13304;BMP280;6720;51.958;4.540;2022-08-01T11:18:01;101786.00;;;25.43
13304;BMP280;6720;51.958;4.540;2022-08-01T11:20:34;101788.03;;;26.21
13304;BMP280;6720;51.958;4.540;2022-08-01T11:38:39;101776.16;;;27.01
13304;BMP280;6720;51.958;4.540;2022-08-01T11:41:24;101794.34;;;26.46
13304;BMP280;6720;51.958;4.540;2022-08-01T11:52:03;101781.34;;;27.29
13304;BMP280;6720;51.958;4.540;2022-08-01T11:54:50;101793.75;;;26.02
13304;BMP280;6720;51.958;4.540;2022-08-01T11:59:51;101804.78;;;27.02
13304;BMP280;6720;51.958;4.540;2022-08-01T12:02:21;101801.38;;;26.22
13304;BMP280;6720;51.958;4.540;2022-08-01T12:07:16;101796.78;;;28.47
13304;BMP280;6720;51.958;4.540;2022-08-01T12:09:42;101795.34;;;28.54
13304;BMP280;6720;51.958;4.540;2022-08-01T12:12:08;101796.03;;;28.21
13304;BMP280;6720;51.958;4.540;2022-08-01T12:14:34;101804.13;;;27.98
13304;BMP280;6720;51.958;4.540;2022-08-01T12:16:59;101808.22;;;28.61
13304;BMP280;6720;51.958;4.540;2022-08-01T12:19:25;101811.44;;;28.19
13304;BMP280;6720;51.958;4.540;2022-08-01T12:22:14;101818.41;;;26.48
13304;BMP280;6720;51.958;4.540;2022-08-01T12:24:42;101807.50;;;27.76
13304;BMP280;6720;51.958;4.540;2022-08-01T12:27:09;101805.44;;;27.79
13304;BMP280;6720;51.958;4.540;2022-08-01T12:29:38;101806.50;;;27.28
13304;BMP280;6720;51.958;4.540;2022-08-01T12:32:03;101802.09;;;27.27
13304;BMP280;6720;51.958;4.540;2022-08-01T12:34:30;101804.09;;;27.11
13304;BMP280;6720;51.958;4.540;2022-08-01T12:36:59;101782.16;;;26.92
13304;BMP280;6720;51.958;4.540;2022-08-01T12:39:34;101797.06;;;27.23
13304;BMP280;6720;51.958;4.540;2022-08-01T12:42:00;101798.84;;;27.47
13304;BMP280;6720;51.958;4.540;2022-08-01T12:44:30;101805.59;;;27.65
13304;BMP280;6720;51.958;4.540;2022-08-01T12:46:56;101804.91;;;27.26
13304;BMP280;6720;51.958;4.540;2022-08-01T12:49:22;101793.38;;;27.24
13304;BMP280;6720;51.958;4.540;2022-08-01T12:51:49;101796.69;;;27.52
13304;BMP280;6720;51.958;4.540;2022-08-01T12:54:15;101806.50;;;27.41
13304;BMP280;6720;51.958;4.540;2022-08-01T12:56:40;101808.44;;;27.39
13304;BMP280;6720;51.958;4.540;2022-08-01T12:59:25;101819.50;;;26.45
13304;BMP280;6720;51.958;4.540;2022-08-01T13:01:52;101814.19;;;27.70
13304;BMP280;6720;51.958;4.540;2022-08-01T13:04:18;101798.50;;;28.48
13304;BMP280;6720;51.958;4.540;2022-08-01T13:06:44;101810.63;;;28.88
13304;BMP280;6720;51.958;4.540;2022-08-01T13:09:10;101823.50;;;28.26
13304;BMP280;6720;51.958;4.540;2022-08-01T13:11:37;101798.78;;;27.72
13304;BMP280;6720;51.958;4.540;2022-08-01T13:14:02;101806.16;;;28.41
13304;BMP280;6720;51.958;4.540;2022-08-01T13:16:28;101810.34;;;27.37
13304;BMP280;6720;51.958;4.540;2022-08-01T13:18:55;101810.81;;;27.31
13304;BMP280;6720;51.958;4.540;2022-08-01T13:21:34;101810.81;;;27.79
13304;BMP280;6720;51.958;4.540;2022-08-01T13:24:12;101804.69;;;27.77
13304;BMP280;6720;51.958;4.540;2022-08-01T13:26:48;101804.41;;;28.53
13304;BMP280;6720;51.958;4.540;2022-08-01T13:29:16;101795.16;;;28.21
13304;BMP280;6720;51.958;4.540;2022-08-01T13:31:42;101804.34;;;28.18
13304;BMP280;6720;51.958;4.540;2022-08-01T13:34:08;101799.88;;;28.30
13304;BMP280;6720;51.958;4.540;2022-08-01T13:36:35;101797.50;;;28.83
13304;BMP280;6720;51.958;4.540;2022-08-01T13:39:06;101791.56;;;29.24
13304;BMP280;6720;51.958;4.540;2022-08-01T13:41:51;101798.97;;;29.77
13304;BMP280;6720;51.958;4.540;2022-08-01T13:44:16;101793.56;;;29.66
13304;BMP280;6720;51.958;4.540;2022-08-01T13:46:43;101792.47;;;28.68
13304;BMP280;6720;51.958;4.540;2022-08-01T13:49:10;101794.31;;;28.78
13304;BMP280;6720;51.958;4.540;2022-08-01T13:51:36;101798.00;;;28.77
13304;BMP280;6720;51.958;4.540;2022-08-01T13:54:03;101795.22;;;30.63
13304;BMP280;6720;51.958;4.540;2022-08-01T13:56:29;101794.22;;;30.75
13304;BMP280;6720;51.958;4.540;2022-08-01T13:58:55;101788.25;;;30.29
13304;BMP280;6720;51.958;4.540;2022-08-01T14:01:21;101792.47;;;30.94
13304;BMP280;6720;51.958;4.540;2022-08-01T14:03:47;101781.19;;;30.06
13304;BMP280;6720;51.958;4.540;2022-08-01T14:06:13;101781.44;;;30.03
13304;BMP280;6720;51.958;4.540;2022-08-01T14:08:43;101785.13;;;30.44
13304;BMP280;6720;51.958;4.540;2022-08-01T14:11:08;101778.88;;;30.33
13304;BMP280;6720;51.958;4.540;2022-08-01T14:13:34;101782.75;;;30.19
13304;BMP280;6720;51.958;4.540;2022-08-01T14:16:02;101788.84;;;31.05
13304;BMP280;6720;51.958;4.540;2022-08-01T14:18:27;101780.13;;;30.81
13304;BMP280;6720;51.958;4.540;2022-08-01T14:20:53;101776.19;;;30.85
13304;BMP280;6720;51.958;4.540;2022-08-01T14:23:18;101770.88;;;31.04
13304;BMP280;6720;51.958;4.540;2022-08-01T14:25:43;101754.44;;;30.55
13304;BMP280;6720;51.958;4.540;2022-08-01T14:28:09;101761.22;;;30.81
13304;BMP280;6720;51.958;4.540;2022-08-01T14:30:35;101765.09;;;29.73
13304;BMP280;6720;51.958;4.540;2022-08-01T14:33:01;101765.50;;;30.00
13304;BMP280;6720;51.958;4.540;2022-08-01T14:35:26;101760.78;;;30.65
13304;BMP280;6720;51.958;4.540;2022-08-01T14:37:52;101766.09;;;30.87
13304;BMP280;6720;51.958;4.540;2022-08-01T14:40:17;101767.78;;;31.39
13304;BMP280;6720;51.958;4.540;2022-08-01T14:42:43;101769.75;;;29.38
13304;BMP280;6720;51.958;4.540;2022-08-01T14:45:12;101769.59;;;30.78
13304;BMP280;6720;51.958;4.540;2022-08-01T14:47:38;101767.28;;;29.46
13304;BMP280;6720;51.958;4.540;2022-08-01T14:50:06;101766.69;;;30.70
13304;BMP280;6720;51.958;4.540;2022-08-01T14:52:33;101772.66;;;31.35
13304;BMP280;6720;51.958;4.540;2022-08-01T14:54:59;101774.69;;;30.40
13304;BMP280;6720;51.958;4.540;2022-08-01T14:57:24;101771.72;;;31.25
13304;BMP280;6720;51.958;4.540;2022-08-01T14:59:50;101782.88;;;31.11
13304;BMP280;6720;51.958;4.540;2022-08-01T15:02:15;101790.66;;;31.55